Airfield :
LOGIN :

Register | Disclaimer

   EN    FR    IT 

 










Legend :    VFR   Marginal VFR   IFR   Intensive IFR   Very Intensive IFR
Visi :
Ceiling :
>= 8 km
>= 3000ft
5 to 8 km
1000 to 3000 ft
1500m to 5 km
500 to 1000 ft
800 to 1500m
200 to 500 ft
< 800m
< 200 ft
Symbols :   Thunderstorms  Fog  Heavy snow  Heavy precipitations  Wind > 20 kt
SIGMETs :     Misc.  Thunderstorms  Icing  Turbulence  Mountain Waves  Volcanic Ashes






- Airport Elevation : 75 ft
- IATA code : YEO


EGDY - RNAS Yeovilton

CURRENT METAR :
  • 062050Z 29011KT 9999 FEW014 SCT120 17/12 Q1027 NOSIG RMK BLU BLU

EXPIRED METARs :
  • 062020Z 30011KT 9999 FEW020 17/12 Q1027 NOSIG RMK BLU BLU
  • 061950Z 30013KT 9999 FEW018 SCT200 18/12 Q1027 NOSIG RMK BLU BLU
  • 061921Z 30016KT 9999 FEW018 19/13 Q1027 NOSIG RMK BLU BLU
  • 061850Z 30016KT 9999 FEW018 19/13 Q1026 NOSIG RMK BLU BLU

TAF TAF EGDY
Valid from the 06 at 18:00 until the 07 at 03:00 UTC


061622Z 0618/0703 30015KT 9999 SCT035



MET'MAP, your aeronautical weather chart ! - Copyright ORBIFLY December 2007 - Disclaimer

ORBIFLY MET'MAP TEAM :

Programming & Development : Alexandra Zaïnal
Original concept : Baudouin d'Aumeries
Technical & hardware support : Manuel Goepfert
Assistance : Marc-Olivier Méhu




SOURCES & CREDITS :

   NOAA